sensor_id;sensor_type;location;lat;lon;timestamp;pressure;altitude;pressure_sealevel;temperature;humidity
57050;BME280;42935;50.966;16.992;2023-04-09T00:01:25;102348.48;;;4.84;100.00
57050;BME280;42935;50.966;16.992;2023-04-09T00:04:50;102338.53;;;4.80;100.00
57050;BME280;42935;50.966;16.992;2023-04-09T00:08:15;102343.16;;;4.93;100.00
57050;BME280;42935;50.966;16.992;2023-04-09T00:11:34;102343.35;;;4.87;100.00
57050;BME280;42935;50.966;16.992;2023-04-09T00:14:58;102333.02;;;4.70;100.00
57050;BME280;42935;50.966;16.992;2023-04-09T00:18:17;102342.88;;;4.88;100.00
57050;BME280;42935;50.966;16.992;2023-04-09T00:21:40;102330.92;;;4.75;100.00
57050;BME280;42935;50.966;16.992;2023-04-09T00:25:01;102333.67;;;4.78;100.00
57050;BME280;42935;50.966;16.992;2023-04-09T00:28:20;102337.77;;;4.83;100.00
57050;BME280;42935;50.966;16.992;2023-04-09T00:31:42;102324.06;;;4.71;100.00
57050;BME280;42935;50.966;16.992;2023-04-09T00:35:03;102349.91;;;4.75;100.00
57050;BME280;42935;50.966;16.992;2023-04-09T00:38:23;102333.36;;;4.76;100.00
57050;BME280;42935;50.966;16.992;2023-04-09T00:41:47;102337.05;;;4.74;100.00
57050;BME280;42935;50.966;16.992;2023-04-09T00:45:11;102338.58;;;4.76;100.00
57050;BME280;42935;50.966;16.992;2023-04-09T00:48:32;102352.64;;;4.59;100.00
57050;BME280;42935;50.966;16.992;2023-04-09T00:52:00;102343.51;;;4.45;100.00
57050;BME280;42935;50.966;16.992;2023-04-09T00:55:19;102339.86;;;4.46;100.00
57050;BME280;42935;50.966;16.992;2023-04-09T00:58:41;102353.87;;;4.49;100.00
57050;BME280;42935;50.966;16.992;2023-04-09T01:02:08;102354.48;;;4.39;100.00
57050;BME280;42935;50.966;16.992;2023-04-09T01:12:50;102352.83;;;4.33;100.00
57050;BME280;42935;50.966;16.992;2023-04-09T01:16:15;102344.20;;;4.28;100.00
57050;BME280;42935;50.966;16.992;2023-04-09T01:20:11;102347.30;;;4.31;100.00
57050;BME280;42935;50.966;16.992;2023-04-09T01:27:05;102358.01;;;4.25;100.00
57050;BME280;42935;50.966;16.992;2023-04-09T01:30:26;102365.95;;;4.27;100.00
57050;BME280;42935;50.966;16.992;2023-04-09T01:33:54;102367.75;;;4.36;100.00
57050;BME280;42935;50.966;16.992;2023-04-09T01:37:15;102359.84;;;4.22;100.00
57050;BME280;42935;50.966;16.992;2023-04-09T01:40:39;102359.66;;;4.16;100.00
57050;BME280;42935;50.966;16.992;2023-04-09T01:44:01;102371.05;;;4.25;100.00
57050;BME280;42935;50.966;16.992;2023-04-09T01:47:26;102369.06;;;4.25;100.00
57050;BME280;42935;50.966;16.992;2023-04-09T01:50:54;102377.46;;;4.30;100.00
57050;BME280;42935;50.966;16.992;2023-04-09T01:54:22;102381.45;;;4.19;100.00
57050;BME280;42935;50.966;16.992;2023-04-09T01:57:47;102361.13;;;4.06;100.00
57050;BME280;42935;50.966;16.992;2023-04-09T02:01:19;102381.97;;;4.26;100.00
57050;BME280;42935;50.966;16.992;2023-04-09T02:04:46;102366.63;;;4.11;100.00
57050;BME280;42935;50.966;16.992;2023-04-09T02:08:15;102379.39;;;4.18;100.00
57050;BME280;42935;50.966;16.992;2023-04-09T02:11:40;102380.27;;;4.23;100.00
57050;BME280;42935;50.966;16.992;2023-04-09T02:15:02;102368.22;;;4.13;100.00
57050;BME280;42935;50.966;16.992;2023-04-09T02:18:26;102356.04;;;4.04;100.00
57050;BME280;42935;50.966;16.992;2023-04-09T02:21:50;102384.36;;;4.23;100.00
57050;BME280;42935;50.966;16.992;2023-04-09T02:25:17;102383.95;;;4.27;100.00
57050;BME280;42935;50.966;16.992;2023-04-09T02:28:41;102372.72;;;4.27;100.00
57050;BME280;42935;50.966;16.992;2023-04-09T02:32:00;102370.65;;;4.27;100.00
57050;BME280;42935;50.966;16.992;2023-04-09T02:35:23;102368.66;;;4.25;100.00
57050;BME280;42935;50.966;16.992;2023-04-09T02:38:47;102383.69;;;4.37;100.00
57050;BME280;42935;50.966;16.992;2023-04-09T02:42:10;102384.44;;;4.31;100.00
57050;BME280;42935;50.966;16.992;2023-04-09T02:45:36;102386.30;;;4.23;100.00
57050;BME280;42935;50.966;16.992;2023-04-09T02:48:57;102374.87;;;4.17;100.00
57050;BME280;42935;50.966;16.992;2023-04-09T02:52:21;102381.27;;;4.16;100.00
57050;BME280;42935;50.966;16.992;2023-04-09T02:55:42;102386.15;;;4.28;100.00
57050;BME280;42935;50.966;16.992;2023-04-09T02:59:09;102341.34;;;4.04;100.00
57050;BME280;42935;50.966;16.992;2023-04-09T03:02:37;102388.98;;;4.28;100.00
57050;BME280;42935;50.966;16.992;2023-04-09T03:06:02;102378.21;;;4.27;100.00
57050;BME280;42935;50.966;16.992;2023-04-09T03:09:27;102389.11;;;4.33;100.00
57050;BME280;42935;50.966;16.992;2023-04-09T03:12:52;102391.10;;;4.31;100.00
57050;BME280;42935;50.966;16.992;2023-04-09T03:16:11;102374.13;;;4.31;100.00
57050;BME280;42935;50.966;16.992;2023-04-09T03:19:35;102370.81;;;4.22;100.00
57050;BME280;42935;50.966;16.992;2023-04-09T03:22:59;102376.34;;;4.35;100.00
57050;BME280;42935;50.966;16.992;2023-04-09T03:26:26;102374.57;;;4.38;100.00
57050;BME280;42935;50.966;16.992;2023-04-09T03:29:49;102376.17;;;4.45;100.00
57050;BME280;42935;50.966;16.992;2023-04-09T03:33:08;102387.98;;;4.43;100.00
57050;BME280;42935;50.966;16.992;2023-04-09T03:36:33;102387.31;;;4.43;100.00
57050;BME280;42935;50.966;16.992;2023-04-09T03:39:57;102375.80;;;4.31;100.00
57050;BME280;42935;50.966;16.992;2023-04-09T03:43:16;102374.00;;;4.32;100.00
57050;BME280;42935;50.966;16.992;2023-04-09T03:46:43;102384.01;;;4.35;100.00
57050;BME280;42935;50.966;16.992;2023-04-09T03:50:02;102389.66;;;4.44;100.00
57050;BME280;42935;50.966;16.992;2023-04-09T03:53:30;102390.08;;;4.43;100.00
57050;BME280;42935;50.966;16.992;2023-04-09T03:56:52;102382.95;;;4.37;100.00
57050;BME280;42935;50.966;16.992;2023-04-09T04:00:15;102391.25;;;4.35;100.00
57050;BME280;42935;50.966;16.992;2023-04-09T04:03:41;102391.80;;;4.35;100.00
57050;BME280;42935;50.966;16.992;2023-04-09T04:07:04;102384.82;;;4.27;100.00
57050;BME280;42935;50.966;16.992;2023-04-09T04:10:33;102399.73;;;4.26;100.00
57050;BME280;42935;50.966;16.992;2023-04-09T04:14:21;102398.60;;;4.15;100.00
57050;BME280;42935;50.966;16.992;2023-04-09T04:17:48;102403.89;;;4.26;100.00
57050;BME280;42935;50.966;16.992;2023-04-09T04:21:16;102405.43;;;4.23;100.00
57050;BME280;42935;50.966;16.992;2023-04-09T04:24:39;102397.59;;;4.15;100.00
57050;BME280;42935;50.966;16.992;2023-04-09T04:28:07;102411.57;;;4.14;100.00
57050;BME280;42935;50.966;16.992;2023-04-09T04:31:26;102402.16;;;4.00;100.00
57050;BME280;42935;50.966;16.992;2023-04-09T04:34:51;102416.84;;;4.00;100.00
57050;BME280;42935;50.966;16.992;2023-04-09T04:38:15;102417.60;;;4.05;100.00
57050;BME280;42935;50.966;16.992;2023-04-09T04:41:43;102421.01;;;3.99;100.00
57050;BME280;42935;50.966;16.992;2023-04-09T04:45:04;102419.46;;;4.02;100.00
57050;BME280;42935;50.966;16.992;2023-04-09T04:48:25;102417.60;;;4.01;100.00
57050;BME280;42935;50.966;16.992;2023-04-09T04:51:50;102420.35;;;4.02;100.00
57050;BME280;42935;50.966;16.992;2023-04-09T04:55:10;102412.76;;;3.92;100.00
57050;BME280;42935;50.966;16.992;2023-04-09T04:58:33;102421.02;;;3.89;100.00
57050;BME280;42935;50.966;16.992;2023-04-09T05:01:57;102420.80;;;3.90;100.00
57050;BME280;42935;50.966;16.992;2023-04-09T05:05:23;102404.21;;;3.79;100.00
57050;BME280;42935;50.966;16.992;2023-04-09T05:08:55;102424.33;;;3.84;100.00
57050;BME280;42935;50.966;16.992;2023-04-09T05:12:30;102426.16;;;3.80;100.00
57050;BME280;42935;50.966;16.992;2023-04-09T05:15:54;102429.27;;;3.69;100.00
57050;BME280;42935;50.966;16.992;2023-04-09T05:19:13;102429.92;;;3.75;100.00
57050;BME280;42935;50.966;16.992;2023-04-09T05:22:33;102428.48;;;3.76;100.00
57050;BME280;42935;50.966;16.992;2023-04-09T05:26:01;102415.41;;;3.61;100.00
57050;BME280;42935;50.966;16.992;2023-04-09T05:29:25;102416.71;;;3.72;100.00
57050;BME280;42935;50.966;16.992;2023-04-09T05:32:49;102422.73;;;3.78;100.00
57050;BME280;42935;50.966;16.992;2023-04-09T05:36:17;102436.84;;;3.84;100.00
57050;BME280;42935;50.966;16.992;2023-04-09T05:39:36;102417.60;;;3.66;100.00
57050;BME280;42935;50.966;16.992;2023-04-09T05:43:00;102444.02;;;3.90;100.00
57050;BME280;42935;50.966;16.992;2023-04-09T05:46:24;102439.30;;;3.81;100.00
57050;BME280;42935;50.966;16.992;2023-04-09T05:49:54;102449.72;;;3.88;100.00
57050;BME280;42935;50.966;16.992;2023-04-09T05:53:13;102446.35;;;3.80;100.00
57050;BME280;42935;50.966;16.992;2023-04-09T05:56:37;102446.29;;;3.80;100.00
57050;BME280;42935;50.966;16.992;2023-04-09T06:00:11;102442.73;;;3.91;100.00
57050;BME280;42935;50.966;16.992;2023-04-09T06:03:40;102441.88;;;3.83;100.00
57050;BME280;42935;50.966;16.992;2023-04-09T06:07:04;102443.51;;;3.86;100.00
57050;BME280;42935;50.966;16.992;2023-04-09T06:10:22;102456.45;;;3.92;100.00
57050;BME280;42935;50.966;16.992;2023-04-09T06:13:42;102460.78;;;3.95;100.00
57050;BME280;42935;50.966;16.992;2023-04-09T06:17:10;102458.59;;;3.99;100.00
57050;BME280;42935;50.966;16.992;2023-04-09T06:20:34;102459.14;;;3.96;100.00
57050;BME280;42935;50.966;16.992;2023-04-09T06:24:00;102439.27;;;3.79;100.00
57050;BME280;42935;50.966;16.992;2023-04-09T06:27:29;102462.12;;;3.95;100.00
57050;BME280;42935;50.966;16.992;2023-04-09T06:30:57;102445.72;;;4.00;100.00
57050;BME280;42935;50.966;16.992;2023-04-09T06:34:25;102449.76;;;3.98;100.00
57050;BME280;42935;50.966;16.992;2023-04-09T06:37:50;102452.30;;;4.03;100.00
57050;BME280;42935;50.966;16.992;2023-04-09T06:41:24;102445.34;;;4.00;100.00
57050;BME280;42935;50.966;16.992;2023-04-09T06:44:55;102455.65;;;4.01;100.00
57050;BME280;42935;50.966;16.992;2023-04-09T06:48:45;102455.34;;;3.97;100.00
57050;BME280;42935;50.966;16.992;2023-04-09T06:52:10;102444.80;;;3.91;100.00
57050;BME280;42935;50.966;16.992;2023-04-09T06:55:39;102443.19;;;4.03;100.00
57050;BME280;42935;50.966;16.992;2023-04-09T06:59:03;102447.75;;;3.95;100.00
57050;BME280;42935;50.966;16.992;2023-04-09T07:02:33;102443.29;;;3.87;100.00
57050;BME280;42935;50.966;16.992;2023-04-09T07:06:02;102449.96;;;3.91;100.00
57050;BME280;42935;50.966;16.992;2023-04-09T07:09:30;102446.86;;;3.84;100.00
57050;BME280;42935;50.966;16.992;2023-04-09T07:12:58;102434.64;;;3.87;100.00
57050;BME280;42935;50.966;16.992;2023-04-09T07:16:26;102442.88;;;3.91;100.00
57050;BME280;42935;50.966;16.992;2023-04-09T07:19:54;102446.81;;;3.98;100.00
57050;BME280;42935;50.966;16.992;2023-04-09T07:23:14;102453.63;;;3.97;100.00
57050;BME280;42935;50.966;16.992;2023-04-09T07:26:33;102457.19;;;4.10;100.00
57050;BME280;42935;50.966;16.992;2023-04-09T07:30:02;102451.58;;;4.16;100.00
57050;BME280;42935;50.966;16.992;2023-04-09T07:33:26;102440.50;;;4.05;100.00
57050;BME280;42935;50.966;16.992;2023-04-09T07:36:54;102464.05;;;4.28;100.00
57050;BME280;42935;50.966;16.992;2023-04-09T07:40:18;102467.93;;;4.37;100.00
57050;BME280;42935;50.966;16.992;2023-04-09T07:43:40;102475.57;;;4.41;100.00
57050;BME280;42935;50.966;16.992;2023-04-09T07:47:08;102477.19;;;4.41;100.00
57050;BME280;42935;50.966;16.992;2023-04-09T07:50:34;102479.30;;;4.42;100.00
57050;BME280;42935;50.966;16.992;2023-04-09T07:54:01;102469.49;;;4.37;100.00
57050;BME280;42935;50.966;16.992;2023-04-09T07:57:25;102415.28;;;4.12;100.00
57050;BME280;42935;50.966;16.992;2023-04-09T08:00:54;102475.05;;;4.57;100.00
57050;BME280;42935;50.966;16.992;2023-04-09T08:04:18;102475.43;;;4.53;100.00
57050;BME280;42935;50.966;16.992;2023-04-09T08:07:46;102475.26;;;4.53;100.00
57050;BME280;42935;50.966;16.992;2023-04-09T08:11:06;102486.26;;;4.67;100.00
57050;BME280;42935;50.966;16.992;2023-04-09T08:14:31;102469.71;;;4.56;100.00
57050;BME280;42935;50.966;16.992;2023-04-09T08:17:56;102473.33;;;4.53;100.00
57050;BME280;42935;50.966;16.992;2023-04-09T08:21:22;102480.86;;;4.61;100.00
57050;BME280;42935;50.966;16.992;2023-04-09T08:24:51;102490.89;;;4.75;100.00
57050;BME280;42935;50.966;16.992;2023-04-09T08:28:16;102456.57;;;4.42;100.00
57050;BME280;42935;50.966;16.992;2023-04-09T08:31:40;102485.14;;;4.59;100.00
57050;BME280;42935;50.966;16.992;2023-04-09T08:35:09;102494.37;;;4.65;100.00
57050;BME280;42935;50.966;16.992;2023-04-09T08:38:38;102490.48;;;4.67;100.00
57050;BME280;42935;50.966;16.992;2023-04-09T08:42:07;102489.38;;;4.60;100.00
57050;BME280;42935;50.966;16.992;2023-04-09T08:45:37;102479.31;;;4.60;100.00
57050;BME280;42935;50.966;16.992;2023-04-09T08:49:03;102475.13;;;4.58;100.00
57050;BME280;42935;50.966;16.992;2023-04-09T08:52:37;102487.82;;;4.66;100.00
57050;BME280;42935;50.966;16.992;2023-04-09T08:56:01;102479.47;;;4.65;100.00
57050;BME280;42935;50.966;16.992;2023-04-09T08:59:30;102463.23;;;4.68;100.00
57050;BME280;42935;50.966;16.992;2023-04-09T09:03:07;102465.80;;;4.70;100.00
57050;BME280;42935;50.966;16.992;2023-04-09T09:06:40;102470.05;;;4.75;100.00
57050;BME280;42935;50.966;16.992;2023-04-09T09:10:04;102470.41;;;4.81;100.00
57050;BME280;42935;50.966;16.992;2023-04-09T09:13:26;102438.10;;;4.64;100.00
57050;BME280;42935;50.966;16.992;2023-04-09T09:17:03;102490.20;;;4.92;100.00
57050;BME280;42935;50.966;16.992;2023-04-09T09:20:33;102478.30;;;4.86;100.00
57050;BME280;42935;50.966;16.992;2023-04-09T09:24:01;102494.32;;;5.01;100.00
57050;BME280;42935;50.966;16.992;2023-04-09T09:27:34;102498.42;;;5.14;100.00
57050;BME280;42935;50.966;16.992;2023-04-09T09:31:08;102495.19;;;5.28;100.00
57050;BME280;42935;50.966;16.992;2023-04-09T09:34:32;102485.30;;;5.44;100.00
57050;BME280;42935;50.966;16.992;2023-04-09T09:38:02;102490.64;;;5.52;100.00
57050;BME280;42935;50.966;16.992;2023-04-09T09:41:30;102492.28;;;5.39;100.00
57050;BME280;42935;50.966;16.992;2023-04-09T09:44:54;102483.64;;;5.52;100.00
57050;BME280;42935;50.966;16.992;2023-04-09T09:48:14;102483.62;;;5.50;100.00
57050;BME280;42935;50.966;16.992;2023-04-09T09:51:43;102481.63;;;5.41;100.00
57050;BME280;42935;50.966;16.992;2023-04-09T09:55:07;102476.61;;;5.42;100.00
57050;BME280;42935;50.966;16.992;2023-04-09T10:02:22;102461.35;;;5.45;100.00
57050;BME280;42935;50.966;16.992;2023-04-09T10:05:54;102473.06;;;5.59;100.00
57050;BME280;42935;50.966;16.992;2023-04-09T10:12:46;102471.51;;;5.77;100.00
57050;BME280;42935;50.966;16.992;2023-04-09T10:16:10;102459.28;;;5.63;100.00
57050;BME280;42935;50.966;16.992;2023-04-09T10:19:37;102453.78;;;5.57;100.00
57050;BME280;42935;50.966;16.992;2023-04-09T10:23:08;102453.75;;;5.53;100.00
57050;BME280;42935;50.966;16.992;2023-04-09T10:26:42;102449.04;;;5.55;100.00
57050;BME280;42935;50.966;16.992;2023-04-09T10:30:37;102454.58;;;5.65;100.00
57050;BME280;42935;50.966;16.992;2023-04-09T10:33:54;102439.78;;;5.56;100.00
57050;BME280;42935;50.966;16.992;2023-04-09T10:37:23;102439.80;;;5.63;100.00
57050;BME280;42935;50.966;16.992;2023-04-09T10:40:50;102451.66;;;5.73;100.00
57050;BME280;42935;50.966;16.992;2023-04-09T10:48:02;102439.56;;;5.73;100.00
57050;BME280;42935;50.966;16.992;2023-04-09T10:51:24;102445.36;;;5.82;100.00
57050;BME280;42935;50.966;16.992;2023-04-09T10:54:50;102446.14;;;5.77;100.00
57050;BME280;42935;50.966;16.992;2023-04-09T10:58:11;102454.04;;;5.86;100.00
57050;BME280;42935;50.966;16.992;2023-04-09T11:01:31;102454.51;;;5.93;100.00
57050;BME280;42935;50.966;16.992;2023-04-09T11:08:39;102432.41;;;5.85;100.00
57050;BME280;42935;50.966;16.992;2023-04-09T11:12:05;102450.11;;;6.01;100.00
57050;BME280;42935;50.966;16.992;2023-04-09T11:15:34;102444.63;;;5.97;100.00
57050;BME280;42935;50.966;16.992;2023-04-09T11:19:00;102451.04;;;5.95;100.00
57050;BME280;42935;50.966;16.992;2023-04-09T11:22:21;102447.55;;;6.05;100.00
57050;BME280;42935;50.966;16.992;2023-04-09T11:25:50;102451.59;;;6.17;100.00
57050;BME280;42935;50.966;16.992;2023-04-09T11:29:18;102423.24;;;6.22;100.00
57050;BME280;42935;50.966;16.992;2023-04-09T11:32:47;102446.59;;;6.31;100.00
57050;BME280;42935;50.966;16.992;2023-04-09T11:36:15;102449.35;;;6.29;100.00
57050;BME280;42935;50.966;16.992;2023-04-09T11:39:44;102441.73;;;6.28;100.00
57050;BME280;42935;50.966;16.992;2023-04-09T11:43:12;102434.52;;;6.04;100.00
57050;BME280;42935;50.966;16.992;2023-04-09T11:46:43;102452.88;;;6.16;100.00
57050;BME280;42935;50.966;16.992;2023-04-09T11:50:08;102453.36;;;6.26;100.00
57050;BME280;42935;50.966;16.992;2023-04-09T11:53:33;102443.82;;;6.36;100.00
57050;BME280;42935;50.966;16.992;2023-04-09T11:57:06;102445.33;;;6.23;100.00
57050;BME280;42935;50.966;16.992;2023-04-09T12:00:34;102455.32;;;6.24;100.00
57050;BME280;42935;50.966;16.992;2023-04-09T12:03:58;102444.36;;;6.17;100.00
57050;BME280;42935;50.966;16.992;2023-04-09T12:07:22;102441.00;;;6.14;100.00
57050;BME280;42935;50.966;16.992;2023-04-09T12:10:51;102451.74;;;6.23;100.00
57050;BME280;42935;50.966;16.992;2023-04-09T12:14:21;102449.06;;;6.22;100.00
57050;BME280;42935;50.966;16.992;2023-04-09T12:17:41;102384.89;;;5.83;100.00
57050;BME280;42935;50.966;16.992;2023-04-09T12:21:05;102438.22;;;6.28;100.00
57050;BME280;42935;50.966;16.992;2023-04-09T12:24:33;102438.78;;;6.31;100.00
57050;BME280;42935;50.966;16.992;2023-04-09T12:28:01;102450.82;;;6.51;100.00
57050;BME280;42935;50.966;16.992;2023-04-09T12:31:27;102450.91;;;6.54;100.00
57050;BME280;42935;50.966;16.992;2023-04-09T12:34:55;102436.03;;;6.42;100.00
57050;BME280;42935;50.966;16.992;2023-04-09T12:38:19;102435.20;;;6.48;100.00
57050;BME280;42935;50.966;16.992;2023-04-09T12:41:47;102432.44;;;6.58;100.00
57050;BME280;42935;50.966;16.992;2023-04-09T12:45:12;102444.05;;;6.58;100.00
57050;BME280;42935;50.966;16.992;2023-04-09T12:48:38;102446.34;;;6.68;100.00
57050;BME280;42935;50.966;16.992;2023-04-09T12:52:00;102433.80;;;6.67;100.00
57050;BME280;42935;50.966;16.992;2023-04-09T12:55:24;102442.70;;;6.78;100.00
57050;BME280;42935;50.966;16.992;2023-04-09T12:58:46;102433.16;;;6.77;100.00
57050;BME280;42935;50.966;16.992;2023-04-09T13:02:10;102429.84;;;6.68;100.00
57050;BME280;42935;50.966;16.992;2023-04-09T13:05:39;102430.23;;;6.65;100.00
57050;BME280;42935;50.966;16.992;2023-04-09T13:09:04;102442.95;;;6.85;100.00
57050;BME280;42935;50.966;16.992;2023-04-09T13:12:32;102437.98;;;6.78;100.00
57050;BME280;42935;50.966;16.992;2023-04-09T13:15:56;102428.55;;;6.77;100.00
57050;BME280;42935;50.966;16.992;2023-04-09T13:19:16;102428.95;;;6.86;100.00
57050;BME280;42935;50.966;16.992;2023-04-09T13:22:41;102427.09;;;6.91;100.00
57050;BME280;42935;50.966;16.992;2023-04-09T13:26:14;102438.49;;;6.90;100.00
57050;BME280;42935;50.966;16.992;2023-04-09T13:29:42;102425.18;;;6.90;100.00
57050;BME280;42935;50.966;16.992;2023-04-09T13:33:07;102434.34;;;6.91;100.00
57050;BME280;42935;50.966;16.992;2023-04-09T13:36:35;102416.45;;;6.80;100.00
57050;BME280;42935;50.966;16.992;2023-04-09T13:40:03;102425.93;;;6.96;100.00
57050;BME280;42935;50.966;16.992;2023-04-09T13:43:32;102419.52;;;6.97;100.00
57050;BME280;42935;50.966;16.992;2023-04-09T13:47:04;102432.97;;;7.23;100.00
57050;BME280;42935;50.966;16.992;2023-04-09T13:50:28;102427.23;;;7.27;100.00
57050;BME280;42935;50.966;16.992;2023-04-09T13:53:57;102440.37;;;7.50;100.00
57050;BME280;42935;50.966;16.992;2023-04-09T13:57:23;102445.10;;;7.56;100.00
57050;BME280;42935;50.966;16.992;2023-04-09T14:00:47;102436.15;;;7.54;100.00
57050;BME280;42935;50.966;16.992;2023-04-09T14:04:11;102445.38;;;7.59;100.00
57050;BME280;42935;50.966;16.992;2023-04-09T14:07:31;102437.82;;;7.46;100.00
57050;BME280;42935;50.966;16.992;2023-04-09T14:10:53;102450.85;;;7.49;100.00
57050;BME280;42935;50.966;16.992;2023-04-09T14:14:23;102427.78;;;7.26;100.00
57050;BME280;42935;50.966;16.992;2023-04-09T14:17:56;102428.86;;;7.32;100.00
57050;BME280;42935;50.966;16.992;2023-04-09T14:21:24;102444.30;;;7.51;100.00
57050;BME280;42935;50.966;16.992;2023-04-09T14:24:49;102443.99;;;7.43;100.00
57050;BME280;42935;50.966;16.992;2023-04-09T14:28:17;102443.90;;;7.49;100.00
57050;BME280;42935;50.966;16.992;2023-04-09T14:31:41;102432.01;;;7.35;100.00
57050;BME280;42935;50.966;16.992;2023-04-09T14:35:06;102438.23;;;7.40;100.00
57050;BME280;42935;50.966;16.992;2023-04-09T14:38:33;102438.58;;;7.43;100.00
57050;BME280;42935;50.966;16.992;2023-04-09T14:41:55;102423.57;;;7.38;100.00
57050;BME280;42935;50.966;16.992;2023-04-09T14:45:24;102431.62;;;7.54;100.00
57050;BME280;42935;50.966;16.992;2023-04-09T14:48:52;102421.47;;;7.52;100.00
57050;BME280;42935;50.966;16.992;2023-04-09T14:52:12;102418.38;;;7.50;100.00
57050;BME280;42935;50.966;16.992;2023-04-09T14:55:36;102416.04;;;7.47;100.00
57050;BME280;42935;50.966;16.992;2023-04-09T14:59:05;102403.53;;;7.37;100.00
57050;BME280;42935;50.966;16.992;2023-04-09T15:02:29;102372.63;;;7.24;100.00
57050;BME280;42935;50.966;16.992;2023-04-09T15:05:47;102419.66;;;7.37;100.00
57050;BME280;42935;50.966;16.992;2023-04-09T15:09:15;102422.81;;;7.58;100.00
57050;BME280;42935;50.966;16.992;2023-04-09T15:12:44;102424.83;;;7.40;100.00
57050;BME280;42935;50.966;16.992;2023-04-09T15:19:54;102423.53;;;7.30;100.00
57050;BME280;42935;50.966;16.992;2023-04-09T15:23:18;102412.98;;;7.17;100.00
57050;BME280;42935;50.966;16.992;2023-04-09T15:26:39;102414.16;;;7.15;100.00
57050;BME280;42935;50.966;16.992;2023-04-09T15:29:59;102411.40;;;7.21;100.00
57050;BME280;42935;50.966;16.992;2023-04-09T15:33:23;102415.08;;;7.26;100.00
57050;BME280;42935;50.966;16.992;2023-04-09T15:36:54;102421.24;;;7.34;100.00
57050;BME280;42935;50.966;16.992;2023-04-09T15:40:11;102411.31;;;7.22;100.00
57050;BME280;42935;50.966;16.992;2023-04-09T15:44:00;102415.58;;;7.31;100.00
57050;BME280;42935;50.966;16.992;2023-04-09T15:47:28;102409.20;;;7.49;100.00
57050;BME280;42935;50.966;16.992;2023-04-09T15:50:57;102417.79;;;7.42;100.00
57050;BME280;42935;50.966;16.992;2023-04-09T15:54:27;102403.81;;;7.32;100.00
57050;BME280;42935;50.966;16.992;2023-04-09T15:57:51;102411.01;;;7.11;100.00
57050;BME280;42935;50.966;16.992;2023-04-09T16:01:13;102408.72;;;7.18;100.00
57050;BME280;42935;50.966;16.992;2023-04-09T16:04:34;102411.98;;;6.95;100.00
57050;BME280;42935;50.966;16.992;2023-04-09T16:07:58;102399.45;;;6.99;100.00
57050;BME280;42935;50.966;16.992;2023-04-09T16:11:24;102411.46;;;7.11;100.00
57050;BME280;42935;50.966;16.992;2023-04-09T16:14:53;102413.44;;;6.99;100.00
57050;BME280;42935;50.966;16.992;2023-04-09T16:18:17;102411.07;;;7.00;100.00
57050;BME280;42935;50.966;16.992;2023-04-09T16:21:41;102411.90;;;6.88;100.00
57050;BME280;42935;50.966;16.992;2023-04-09T16:25:02;102400.06;;;6.87;100.00
57050;BME280;42935;50.966;16.992;2023-04-09T16:28:26;102411.51;;;6.87;100.00
57050;BME280;42935;50.966;16.992;2023-04-09T16:31:52;102412.26;;;6.83;100.00
57050;BME280;42935;50.966;16.992;2023-04-09T16:35:19;102398.70;;;6.80;100.00
57050;BME280;42935;50.966;16.992;2023-04-09T16:38:43;102402.28;;;6.77;100.00
57050;BME280;42935;50.966;16.992;2023-04-09T16:42:11;102412.96;;;6.64;100.00
57050;BME280;42935;50.966;16.992;2023-04-09T16:45:37;102405.03;;;6.62;100.00
57050;BME280;42935;50.966;16.992;2023-04-09T16:49:05;102407.01;;;6.57;100.00
57050;BME280;42935;50.966;16.992;2023-04-09T16:52:29;102404.20;;;6.44;100.00
57050;BME280;42935;50.966;16.992;2023-04-09T16:55:59;102407.24;;;6.47;100.00
57050;BME280;42935;50.966;16.992;2023-04-09T16:59:19;102407.52;;;6.39;100.00
57050;BME280;42935;50.966;16.992;2023-04-09T17:02:43;102418.12;;;6.42;100.00
57050;BME280;42935;50.966;16.992;2023-04-09T17:06:06;102411.54;;;6.37;100.00
57050;BME280;42935;50.966;16.992;2023-04-09T17:09:26;102422.20;;;6.41;100.00
57050;BME280;42935;50.966;16.992;2023-04-09T17:12:51;102423.95;;;6.50;100.00
57050;BME280;42935;50.966;16.992;2023-04-09T17:16:11;102412.07;;;6.53;100.00
57050;BME280;42935;50.966;16.992;2023-04-09T17:19:39;102428.93;;;6.58;100.00
57050;BME280;42935;50.966;16.992;2023-04-09T17:23:09;102429.00;;;6.54;100.00
57050;BME280;42935;50.966;16.992;2023-04-09T17:26:33;102429.21;;;6.35;100.00
57050;BME280;42935;50.966;16.992;2023-04-09T17:29:57;102431.40;;;6.34;100.00
57050;BME280;42935;50.966;16.992;2023-04-09T17:33:17;102422.61;;;6.27;100.00
57050;BME280;42935;50.966;16.992;2023-04-09T17:36:48;102435.40;;;6.34;100.00
57050;BME280;42935;50.966;16.992;2023-04-09T17:40:23;102430.42;;;6.34;100.00
57050;BME280;42935;50.966;16.992;2023-04-09T17:43:43;102440.52;;;6.32;100.00
57050;BME280;42935;50.966;16.992;2023-04-09T17:47:08;102431.32;;;6.29;100.00
57050;BME280;42935;50.966;16.992;2023-04-09T17:50:38;102434.23;;;6.28;100.00
57050;BME280;42935;50.966;16.992;2023-04-09T17:54:06;102444.19;;;6.34;100.00
57050;BME280;42935;50.966;16.992;2023-04-09T17:57:34;102444.57;;;6.26;100.00
57050;BME280;42935;50.966;16.992;2023-04-09T18:01:06;102446.72;;;6.21;100.00
57050;BME280;42935;50.966;16.992;2023-04-09T18:04:34;102435.91;;;6.19;100.00
57050;BME280;42935;50.966;16.992;2023-04-09T18:07:54;102434.34;;;6.20;100.00
57050;BME280;42935;50.966;16.992;2023-04-09T18:11:19;102446.75;;;6.25;100.00